sensor_id;sensor_type;location;lat;lon;timestamp;pressure;altitude;pressure_sealevel;temperature;humidity
81997;BME280;71500;50.806;8.774;2024-01-30T00:00:17;101050.92;;;2.40;75.57
81997;BME280;71500;50.806;8.774;2024-01-30T00:03:09;101052.39;;;2.38;75.68
81997;BME280;71500;50.806;8.774;2024-01-30T00:05:41;101054.67;;;2.38;75.57
81997;BME280;71500;50.806;8.774;2024-01-30T00:08:13;101055.11;;;2.35;75.59
81997;BME280;71500;50.806;8.774;2024-01-30T00:10:45;101058.20;;;2.33;75.61
81997;BME280;71500;50.806;8.774;2024-01-30T00:13:16;101058.43;;;2.30;75.71
81997;BME280;71500;50.806;8.774;2024-01-30T00:15:50;101050.67;;;2.27;75.59
81997;BME280;71500;50.806;8.774;2024-01-30T00:18:21;101052.89;;;2.24;75.68
81997;BME280;71500;50.806;8.774;2024-01-30T00:20:53;101057.00;;;2.22;75.70
81997;BME280;71500;50.806;8.774;2024-01-30T00:23:25;101054.66;;;2.18;75.64
81997;BME280;71500;50.806;8.774;2024-01-30T00:25:56;101054.27;;;2.14;75.71
81997;BME280;71500;50.806;8.774;2024-01-30T00:28:27;101057.56;;;2.10;75.60
81997;BME280;71500;50.806;8.774;2024-01-30T00:30:59;101056.81;;;2.06;75.75
81997;BME280;71500;50.806;8.774;2024-01-30T00:33:31;101054.14;;;2.03;75.71
81997;BME280;71500;50.806;8.774;2024-01-30T00:36:02;101055.13;;;2.05;75.68
81997;BME280;71500;50.806;8.774;2024-01-30T00:38:34;101050.34;;;2.06;75.68
81997;BME280;71500;50.806;8.774;2024-01-30T00:41:06;101054.86;;;2.07;75.67
81997;BME280;71500;50.806;8.774;2024-01-30T00:43:38;101052.35;;;2.09;75.64
81997;BME280;71500;50.806;8.774;2024-01-30T00:46:10;101050.91;;;2.10;75.62
81997;BME280;71500;50.806;8.774;2024-01-30T00:48:41;101050.95;;;2.14;75.69
81997;BME280;71500;50.806;8.774;2024-01-30T00:51:13;101050.54;;;2.16;75.67
81997;BME280;71500;50.806;8.774;2024-01-30T00:53:46;101050.97;;;2.19;75.62
81997;BME280;71500;50.806;8.774;2024-01-30T00:56:18;101054.23;;;2.20;75.49
81997;BME280;71500;50.806;8.774;2024-01-30T00:58:50;101056.14;;;2.21;75.39
81997;BME280;71500;50.806;8.774;2024-01-30T01:01:22;101050.72;;;2.21;75.38
81997;BME280;71500;50.806;8.774;2024-01-30T01:03:53;101051.13;;;2.19;75.42
81997;BME280;71500;50.806;8.774;2024-01-30T01:06:25;101052.26;;;2.17;75.37
81997;BME280;71500;50.806;8.774;2024-01-30T01:08:57;101052.35;;;2.15;75.36
81997;BME280;71500;50.806;8.774;2024-01-30T01:11:31;101052.59;;;2.12;75.30
81997;BME280;71500;50.806;8.774;2024-01-30T01:14:02;101054.45;;;2.09;75.27
81997;BME280;71500;50.806;8.774;2024-01-30T01:16:34;101053.89;;;2.05;75.37
81997;BME280;71500;50.806;8.774;2024-01-30T01:19:05;101052.48;;;2.00;75.41
81997;BME280;71500;50.806;8.774;2024-01-30T01:21:37;101052.26;;;1.96;75.41
81997;BME280;71500;50.806;8.774;2024-01-30T01:24:09;101050.47;;;1.92;75.35
81997;BME280;71500;50.806;8.774;2024-01-30T01:26:41;101047.45;;;1.88;75.41
81997;BME280;71500;50.806;8.774;2024-01-30T01:29:13;101048.98;;;1.85;75.49
81997;BME280;71500;50.806;8.774;2024-01-30T01:31:46;101054.06;;;1.84;75.67
81997;BME280;71500;50.806;8.774;2024-01-30T01:34:17;101048.65;;;1.79;75.67
81997;BME280;71500;50.806;8.774;2024-01-30T01:36:49;101044.89;;;1.76;75.67
81997;BME280;71500;50.806;8.774;2024-01-30T01:39:21;101045.02;;;1.78;75.69
81997;BME280;71500;50.806;8.774;2024-01-30T01:41:54;101046.73;;;1.78;75.62
81997;BME280;71500;50.806;8.774;2024-01-30T01:44:25;101046.71;;;1.79;75.59
81997;BME280;71500;50.806;8.774;2024-01-30T01:46:58;101046.29;;;1.81;75.55
81997;BME280;71500;50.806;8.774;2024-01-30T01:49:30;101046.39;;;1.83;75.54
81997;BME280;71500;50.806;8.774;2024-01-30T01:52:02;101039.10;;;1.86;75.56
81997;BME280;71500;50.806;8.774;2024-01-30T01:54:34;101036.95;;;1.88;75.52
81997;BME280;71500;50.806;8.774;2024-01-30T01:57:05;101038.95;;;1.91;75.45
81997;BME280;71500;50.806;8.774;2024-01-30T01:59:38;101034.55;;;1.92;75.38
81997;BME280;71500;50.806;8.774;2024-01-30T02:02:12;101039.43;;;1.92;75.37
81997;BME280;71500;50.806;8.774;2024-01-30T02:04:46;101035.77;;;1.92;75.35
81997;BME280;71500;50.806;8.774;2024-01-30T02:07:18;101034.92;;;1.91;75.24
81997;BME280;71500;50.806;8.774;2024-01-30T02:09:50;101035.70;;;1.89;75.26
81997;BME280;71500;50.806;8.774;2024-01-30T02:12:21;101035.73;;;1.87;75.26
81997;BME280;71500;50.806;8.774;2024-01-30T02:14:53;101029.52;;;1.85;75.30
81997;BME280;71500;50.806;8.774;2024-01-30T02:17:25;101032.76;;;1.82;75.27
81997;BME280;71500;50.806;8.774;2024-01-30T02:19:57;101033.06;;;1.79;75.27
81997;BME280;71500;50.806;8.774;2024-01-30T02:22:29;101033.86;;;1.76;75.35
81997;BME280;71500;50.806;8.774;2024-01-30T02:25:00;101033.30;;;1.72;75.39
81997;BME280;71500;50.806;8.774;2024-01-30T02:27:32;101032.55;;;1.68;75.34
81997;BME280;71500;50.806;8.774;2024-01-30T02:30:06;101033.91;;;1.64;75.35
81997;BME280;71500;50.806;8.774;2024-01-30T02:32:38;101027.06;;;1.59;75.43
81997;BME280;71500;50.806;8.774;2024-01-30T02:35:10;101028.90;;;1.56;75.52
81997;BME280;71500;50.806;8.774;2024-01-30T02:37:41;101026.75;;;1.53;75.69
81997;BME280;71500;50.806;8.774;2024-01-30T02:40:14;101028.54;;;1.51;75.86
81997;BME280;71500;50.806;8.774;2024-01-30T02:42:45;101024.28;;;1.53;75.74
81997;BME280;71500;50.806;8.774;2024-01-30T02:45:18;101024.73;;;1.55;75.68
81997;BME280;71500;50.806;8.774;2024-01-30T02:47:49;101024.70;;;1.57;75.73
81997;BME280;71500;50.806;8.774;2024-01-30T02:50:21;101023.14;;;1.61;75.69
81997;BME280;71500;50.806;8.774;2024-01-30T02:52:53;101019.23;;;1.63;75.49
81997;BME280;71500;50.806;8.774;2024-01-30T02:55:25;101014.95;;;1.66;75.51
81997;BME280;71500;50.806;8.774;2024-01-30T02:57:57;101007.95;;;1.65;75.37
81997;BME280;71500;50.806;8.774;2024-01-30T03:00:28;101012.36;;;1.69;75.36
81997;BME280;71500;50.806;8.774;2024-01-30T03:03:00;101012.86;;;1.70;75.28
81997;BME280;71500;50.806;8.774;2024-01-30T03:05:32;101013.70;;;1.71;75.25
81997;BME280;71500;50.806;8.774;2024-01-30T03:08:05;101010.00;;;1.72;75.39
81997;BME280;71500;50.806;8.774;2024-01-30T03:10:38;101009.48;;;1.72;75.34
81997;BME280;71500;50.806;8.774;2024-01-30T03:13:09;101005.14;;;1.71;75.23
81997;BME280;71500;50.806;8.774;2024-01-30T03:15:41;101004.02;;;1.68;75.18
81997;BME280;71500;50.806;8.774;2024-01-30T03:18:13;101003.23;;;1.65;75.25
81997;BME280;71500;50.806;8.774;2024-01-30T03:20:44;101009.95;;;1.63;75.34
81997;BME280;71500;50.806;8.774;2024-01-30T03:23:19;101006.88;;;1.61;75.31
81997;BME280;71500;50.806;8.774;2024-01-30T03:25:51;101002.40;;;1.58;75.27
81997;BME280;71500;50.806;8.774;2024-01-30T03:28:23;101001.09;;;1.56;75.32
81997;BME280;71500;50.806;8.774;2024-01-30T03:30:54;101000.86;;;1.52;75.33
81997;BME280;71500;50.806;8.774;2024-01-30T03:33:26;100999.23;;;1.49;75.27
81997;BME280;71500;50.806;8.774;2024-01-30T03:36:02;100996.39;;;1.44;75.41
81997;BME280;71500;50.806;8.774;2024-01-30T03:38:34;100993.36;;;1.41;75.50
81997;BME280;71500;50.806;8.774;2024-01-30T03:41:09;100996.77;;;1.38;75.61
81997;BME280;71500;50.806;8.774;2024-01-30T03:43:40;101004.66;;;1.38;75.52
81997;BME280;71500;50.806;8.774;2024-01-30T03:46:13;101002.77;;;1.31;75.52
81997;BME280;71500;50.806;8.774;2024-01-30T03:48:46;101000.08;;;1.28;75.58
81997;BME280;71500;50.806;8.774;2024-01-30T03:51:17;100996.02;;;1.29;75.60
81997;BME280;71500;50.806;8.774;2024-01-30T03:53:49;100991.62;;;1.30;75.68
81997;BME280;71500;50.806;8.774;2024-01-30T03:56:21;100989.61;;;1.33;75.77
81997;BME280;71500;50.806;8.774;2024-01-30T03:58:52;100986.23;;;1.35;75.67
81997;BME280;71500;50.806;8.774;2024-01-30T04:01:23;100985.41;;;1.38;75.59
81997;BME280;71500;50.806;8.774;2024-01-30T04:03:55;100985.63;;;1.42;75.61
81997;BME280;71500;50.806;8.774;2024-01-30T04:06:27;100983.91;;;1.46;75.61
81997;BME280;71500;50.806;8.774;2024-01-30T04:08:59;100984.86;;;1.49;75.50
81997;BME280;71500;50.806;8.774;2024-01-30T04:11:30;100980.74;;;1.52;75.50
81997;BME280;71500;50.806;8.774;2024-01-30T04:14:02;100980.32;;;1.54;75.47
81997;BME280;71500;50.806;8.774;2024-01-30T04:16:33;100977.30;;;1.55;75.40
81997;BME280;71500;50.806;8.774;2024-01-30T04:19:05;100978.84;;;1.56;75.32
81997;BME280;71500;50.806;8.774;2024-01-30T04:21:37;100977.30;;;1.55;75.24
81997;BME280;71500;50.806;8.774;2024-01-30T04:24:08;100988.70;;;1.55;75.28
81997;BME280;71500;50.806;8.774;2024-01-30T04:26:40;100984.55;;;1.53;75.33
81997;BME280;71500;50.806;8.774;2024-01-30T04:29:12;100988.45;;;1.52;75.28
81997;BME280;71500;50.806;8.774;2024-01-30T04:31:43;100993.27;;;1.49;75.29
81997;BME280;71500;50.806;8.774;2024-01-30T04:34:15;100986.31;;;1.47;75.33
81997;BME280;71500;50.806;8.774;2024-01-30T04:36:47;100991.85;;;1.44;75.30
81997;BME280;71500;50.806;8.774;2024-01-30T04:39:18;100990.21;;;1.41;75.32
81997;BME280;71500;50.806;8.774;2024-01-30T04:41:50;100992.73;;;1.39;75.38
81997;BME280;71500;50.806;8.774;2024-01-30T04:44:22;100991.78;;;1.35;75.42
81997;BME280;71500;50.806;8.774;2024-01-30T04:46:53;100994.52;;;1.32;75.37
81997;BME280;71500;50.806;8.774;2024-01-30T04:49:29;100995.63;;;1.30;75.53
81997;BME280;71500;50.806;8.774;2024-01-30T04:52:00;100988.23;;;1.27;75.57
81997;BME280;71500;50.806;8.774;2024-01-30T04:54:32;100993.89;;;1.24;75.65
81997;BME280;71500;50.806;8.774;2024-01-30T04:57:04;100992.22;;;1.22;75.62
81997;BME280;71500;50.806;8.774;2024-01-30T04:59:39;100991.98;;;1.24;75.71
81997;BME280;71500;50.806;8.774;2024-01-30T05:02:11;100991.36;;;1.27;75.76
81997;BME280;71500;50.806;8.774;2024-01-30T05:04:43;100985.17;;;1.29;75.72
81997;BME280;71500;50.806;8.774;2024-01-30T05:07:14;100986.27;;;1.33;75.75
81997;BME280;71500;50.806;8.774;2024-01-30T05:09:46;100987.34;;;1.38;75.64
81997;BME280;71500;50.806;8.774;2024-01-30T05:12:18;100988.59;;;1.42;75.54
81997;BME280;71500;50.806;8.774;2024-01-30T05:14:49;100990.39;;;1.46;75.55
81997;BME280;71500;50.806;8.774;2024-01-30T05:17:21;100988.65;;;1.46;75.56
81997;BME280;71500;50.806;8.774;2024-01-30T05:19:52;100991.10;;;1.46;75.61
81997;BME280;71500;50.806;8.774;2024-01-30T05:22:24;100991.65;;;1.45;75.65
81997;BME280;71500;50.806;8.774;2024-01-30T05:24:56;100993.27;;;1.43;75.70
81997;BME280;71500;50.806;8.774;2024-01-30T05:27:27;100993.02;;;1.41;75.70
81997;BME280;71500;50.806;8.774;2024-01-30T05:29:59;100996.05;;;1.39;75.71
81997;BME280;71500;50.806;8.774;2024-01-30T05:32:30;100994.91;;;1.36;75.76
81997;BME280;71500;50.806;8.774;2024-01-30T05:35:02;100996.27;;;1.32;75.79
81997;BME280;71500;50.806;8.774;2024-01-30T05:37:34;100997.96;;;1.29;75.76
81997;BME280;71500;50.806;8.774;2024-01-30T05:40:08;100999.30;;;1.25;75.76
81997;BME280;71500;50.806;8.774;2024-01-30T05:42:40;100998.73;;;1.21;75.84
81997;BME280;71500;50.806;8.774;2024-01-30T05:45:12;101001.70;;;1.16;75.83
81997;BME280;71500;50.806;8.774;2024-01-30T05:47:43;101003.60;;;1.11;75.91
81997;BME280;71500;50.806;8.774;2024-01-30T05:50:15;101004.29;;;1.05;76.08
81997;BME280;71500;50.806;8.774;2024-01-30T05:52:47;101001.64;;;1.00;76.17
81997;BME280;71500;50.806;8.774;2024-01-30T05:55:18;101000.73;;;0.95;76.33
81997;BME280;71500;50.806;8.774;2024-01-30T05:57:50;101003.11;;;0.92;76.37
81997;BME280;71500;50.806;8.774;2024-01-30T06:00:22;100999.40;;;0.93;76.41
81997;BME280;71500;50.806;8.774;2024-01-30T06:02:54;101002.33;;;0.95;76.39
81997;BME280;71500;50.806;8.774;2024-01-30T06:05:25;100999.52;;;0.95;76.41
81997;BME280;71500;50.806;8.774;2024-01-30T06:07:57;101004.66;;;0.99;76.49
81997;BME280;71500;50.806;8.774;2024-01-30T06:10:28;101002.51;;;1.00;76.49
81997;BME280;71500;50.806;8.774;2024-01-30T06:13:00;101005.20;;;1.04;76.42
81997;BME280;71500;50.806;8.774;2024-01-30T06:15:32;101004.39;;;1.08;76.41
81997;BME280;71500;50.806;8.774;2024-01-30T06:18:04;101007.65;;;1.10;76.36
81997;BME280;71500;50.806;8.774;2024-01-30T06:20:35;101003.36;;;1.13;76.45
81997;BME280;71500;50.806;8.774;2024-01-30T06:23:07;101000.36;;;1.13;76.47
81997;BME280;71500;50.806;8.774;2024-01-30T06:25:39;101000.81;;;1.16;76.46
81997;BME280;71500;50.806;8.774;2024-01-30T06:28:10;100992.94;;;1.16;76.39
81997;BME280;71500;50.806;8.774;2024-01-30T06:30:42;100993.27;;;1.17;76.41
81997;BME280;71500;50.806;8.774;2024-01-30T06:33:14;100992.38;;;1.17;76.51
81997;BME280;71500;50.806;8.774;2024-01-30T06:35:46;100989.25;;;1.17;76.51
81997;BME280;71500;50.806;8.774;2024-01-30T06:38:18;100987.84;;;1.17;76.52
81997;BME280;71500;50.806;8.774;2024-01-30T06:40:49;100986.11;;;1.16;76.29
81997;BME280;71500;50.806;8.774;2024-01-30T06:43:21;100987.73;;;1.15;76.35
81997;BME280;71500;50.806;8.774;2024-01-30T06:45:53;100985.33;;;1.13;76.45
81997;BME280;71500;50.806;8.774;2024-01-30T06:48:24;100985.54;;;1.12;76.52
81997;BME280;71500;50.806;8.774;2024-01-30T06:50:56;100990.50;;;1.10;76.46
81997;BME280;71500;50.806;8.774;2024-01-30T06:53:28;100989.85;;;1.08;76.45
81997;BME280;71500;50.806;8.774;2024-01-30T06:55:59;100985.36;;;1.06;76.56
81997;BME280;71500;50.806;8.774;2024-01-30T06:58:31;100987.91;;;1.03;76.59
81997;BME280;71500;50.806;8.774;2024-01-30T07:01:03;100993.60;;;1.01;76.67
81997;BME280;71500;50.806;8.774;2024-01-30T07:03:35;100995.29;;;1.02;76.57
81997;BME280;71500;50.806;8.774;2024-01-30T07:06:06;100999.80;;;1.03;76.68
81997;BME280;71500;50.806;8.774;2024-01-30T07:08:38;101001.52;;;1.04;76.60
81997;BME280;71500;50.806;8.774;2024-01-30T07:11:10;101005.72;;;1.10;76.57
81997;BME280;71500;50.806;8.774;2024-01-30T07:13:42;100999.58;;;1.11;76.59
81997;BME280;71500;50.806;8.774;2024-01-30T07:16:14;100996.58;;;1.17;76.41
81997;BME280;71500;50.806;8.774;2024-01-30T07:18:45;100995.54;;;1.22;76.21
81997;BME280;71500;50.806;8.774;2024-01-30T07:21:18;100994.90;;;1.26;76.23
81997;BME280;71500;50.806;8.774;2024-01-30T07:23:52;100996.20;;;1.29;76.21
81997;BME280;71500;50.806;8.774;2024-01-30T07:26:23;100998.69;;;1.33;76.25
81997;BME280;71500;50.806;8.774;2024-01-30T07:28:55;100997.85;;;1.37;76.16
81997;BME280;71500;50.806;8.774;2024-01-30T07:31:26;100995.34;;;1.39;76.05
81997;BME280;71500;50.806;8.774;2024-01-30T07:34:01;100997.90;;;1.41;75.97
81997;BME280;71500;50.806;8.774;2024-01-30T07:36:33;101003.60;;;1.43;76.03
81997;BME280;71500;50.806;8.774;2024-01-30T07:39:05;100999.19;;;1.44;76.04
81997;BME280;71500;50.806;8.774;2024-01-30T07:41:37;100999.89;;;1.44;75.93
81997;BME280;71500;50.806;8.774;2024-01-30T07:44:08;101002.38;;;1.43;75.79
81997;BME280;71500;50.806;8.774;2024-01-30T07:46:40;101004.73;;;1.41;75.83
81997;BME280;71500;50.806;8.774;2024-01-30T07:49:11;101003.60;;;1.38;75.89
81997;BME280;71500;50.806;8.774;2024-01-30T07:51:44;101003.84;;;1.36;75.96
81997;BME280;71500;50.806;8.774;2024-01-30T07:54:16;101006.33;;;1.35;76.15
81997;BME280;71500;50.806;8.774;2024-01-30T07:56:48;101007.23;;;1.34;76.15
81997;BME280;71500;50.806;8.774;2024-01-30T07:59:20;101007.43;;;1.33;76.04
81997;BME280;71500;50.806;8.774;2024-01-30T08:01:54;101010.65;;;1.32;76.00
81997;BME280;71500;50.806;8.774;2024-01-30T08:04:26;101012.96;;;1.30;76.14
81997;BME280;71500;50.806;8.774;2024-01-30T08:06:58;101014.90;;;1.29;76.13
81997;BME280;71500;50.806;8.774;2024-01-30T08:09:30;101014.63;;;1.33;76.14
81997;BME280;71500;50.806;8.774;2024-01-30T08:12:01;101017.33;;;1.36;76.16
81997;BME280;71500;50.806;8.774;2024-01-30T08:14:33;101021.41;;;1.40;76.25
81997;BME280;71500;50.806;8.774;2024-01-30T08:17:04;101027.35;;;1.45;76.33
81997;BME280;71500;50.806;8.774;2024-01-30T08:19:37;101028.89;;;1.51;76.30
81997;BME280;71500;50.806;8.774;2024-01-30T08:22:09;101031.46;;;1.59;76.24
81997;BME280;71500;50.806;8.774;2024-01-30T08:24:42;101034.54;;;1.66;76.28
81997;BME280;71500;50.806;8.774;2024-01-30T08:27:13;101032.17;;;1.74;76.30
81997;BME280;71500;50.806;8.774;2024-01-30T08:29:45;101023.02;;;1.80;76.25
81997;BME280;71500;50.806;8.774;2024-01-30T08:32:16;101016.48;;;1.82;76.05
81997;BME280;71500;50.806;8.774;2024-01-30T08:34:48;101018.73;;;1.88;76.08
81997;BME280;71500;50.806;8.774;2024-01-30T08:37:20;101011.40;;;1.93;76.02
81997;BME280;71500;50.806;8.774;2024-01-30T08:39:51;101002.59;;;1.89;75.94
81997;BME280;71500;50.806;8.774;2024-01-30T08:42:24;101015.81;;;2.02;75.81
81997;BME280;71500;50.806;8.774;2024-01-30T08:44:56;101014.15;;;2.04;75.78
81997;BME280;71500;50.806;8.774;2024-01-30T08:47:28;101018.14;;;2.05;75.81
81997;BME280;71500;50.806;8.774;2024-01-30T08:50:00;101026.73;;;2.05;75.93
81997;BME280;71500;50.806;8.774;2024-01-30T08:52:32;101027.24;;;2.05;75.94
81997;BME280;71500;50.806;8.774;2024-01-30T08:55:05;101024.84;;;2.04;75.99
81997;BME280;71500;50.806;8.774;2024-01-30T08:57:37;101032.96;;;2.03;75.98
81997;BME280;71500;50.806;8.774;2024-01-30T09:00:11;101040.35;;;2.02;76.10
81997;BME280;71500;50.806;8.774;2024-01-30T09:02:43;101033.73;;;2.00;76.11
81997;BME280;71500;50.806;8.774;2024-01-30T09:05:15;101031.64;;;2.00;76.36
81997;BME280;71500;50.806;8.774;2024-01-30T09:07:46;101028.13;;;2.00;76.51
81997;BME280;71500;50.806;8.774;2024-01-30T09:10:18;101032.02;;;2.04;76.50
81997;BME280;71500;50.806;8.774;2024-01-30T09:12:51;101030.10;;;2.09;76.35
81997;BME280;71500;50.806;8.774;2024-01-30T09:15:23;101033.73;;;2.16;76.16
81997;BME280;71500;50.806;8.774;2024-01-30T09:17:56;101042.80;;;2.22;76.23
81997;BME280;71500;50.806;8.774;2024-01-30T09:20:28;101043.09;;;2.29;76.14
81997;BME280;71500;50.806;8.774;2024-01-30T09:23:04;101037.23;;;2.35;76.05
81997;BME280;71500;50.806;8.774;2024-01-30T09:25:35;101041.20;;;2.42;75.99
81997;BME280;71500;50.806;8.774;2024-01-30T09:28:07;101037.84;;;2.48;76.03
81997;BME280;71500;50.806;8.774;2024-01-30T09:30:39;101036.58;;;2.53;76.11
81997;BME280;71500;50.806;8.774;2024-01-30T09:33:11;101032.55;;;2.58;76.16
81997;BME280;71500;50.806;8.774;2024-01-30T09:35:42;101034.79;;;2.64;76.18
81997;BME280;71500;50.806;8.774;2024-01-30T09:38:14;101038.82;;;2.69;76.20
81997;BME280;71500;50.806;8.774;2024-01-30T09:40:46;101038.17;;;2.72;76.26
81997;BME280;71500;50.806;8.774;2024-01-30T09:43:23;101036.30;;;2.75;76.28
81997;BME280;71500;50.806;8.774;2024-01-30T09:45:58;101036.37;;;2.78;76.38
81997;BME280;71500;50.806;8.774;2024-01-30T09:48:31;101035.52;;;2.82;76.37
81997;BME280;71500;50.806;8.774;2024-01-30T09:51:04;101032.63;;;2.84;76.47
81997;BME280;71500;50.806;8.774;2024-01-30T09:53:37;101031.78;;;2.88;76.53
81997;BME280;71500;50.806;8.774;2024-01-30T09:56:08;101030.23;;;2.91;76.45
81997;BME280;71500;50.806;8.774;2024-01-30T09:58:39;101034.13;;;2.95;76.49
81997;BME280;71500;50.806;8.774;2024-01-30T10:01:12;101031.77;;;2.97;76.57
81997;BME280;71500;50.806;8.774;2024-01-30T10:03:44;101033.95;;;3.00;76.61
81997;BME280;71500;50.806;8.774;2024-01-30T10:06:16;101040.21;;;3.01;76.54
81997;BME280;71500;50.806;8.774;2024-01-30T10:08:50;101041.02;;;3.03;76.49
81997;BME280;71500;50.806;8.774;2024-01-30T10:11:22;101042.70;;;3.05;76.56
81997;BME280;71500;50.806;8.774;2024-01-30T10:13:56;101038.02;;;3.12;76.55
81997;BME280;71500;50.806;8.774;2024-01-30T10:16:28;101033.89;;;3.20;76.59
81997;BME280;71500;50.806;8.774;2024-01-30T10:18:59;101030.02;;;3.29;76.58
81997;BME280;71500;50.806;8.774;2024-01-30T10:21:32;101020.50;;;3.39;76.43
81997;BME280;71500;50.806;8.774;2024-01-30T10:24:05;101017.68;;;3.47;76.44
81997;BME280;71500;50.806;8.774;2024-01-30T10:26:39;101013.97;;;3.57;76.26
81997;BME280;71500;50.806;8.774;2024-01-30T10:29:10;101007.79;;;3.62;76.15
81997;BME280;71500;50.806;8.774;2024-01-30T10:31:42;101010.14;;;3.73;76.07
81997;BME280;71500;50.806;8.774;2024-01-30T10:34:14;101008.84;;;3.79;75.99
81997;BME280;71500;50.806;8.774;2024-01-30T10:36:59;101006.16;;;3.84;75.98
81997;BME280;71500;50.806;8.774;2024-01-30T10:39:32;101007.61;;;3.91;76.00
81997;BME280;71500;50.806;8.774;2024-01-30T10:42:17;101010.52;;;3.97;75.64
81997;BME280;71500;50.806;8.774;2024-01-30T10:44:59;101011.63;;;4.00;75.34
81997;BME280;71500;50.806;8.774;2024-01-30T10:47:31;101013.66;;;4.01;75.36
81997;BME280;71500;50.806;8.774;2024-01-30T10:50:07;101006.64;;;4.01;75.37
81997;BME280;71500;50.806;8.774;2024-01-30T10:52:42;101005.55;;;4.02;75.27
81997;BME280;71500;50.806;8.774;2024-01-30T10:55:15;101002.92;;;4.02;75.34
81997;BME280;71500;50.806;8.774;2024-01-30T10:57:47;100997.81;;;3.98;75.37
81997;BME280;71500;50.806;8.774;2024-01-30T11:00:20;101004.54;;;4.01;75.39
81997;BME280;71500;50.806;8.774;2024-01-30T11:02:54;101010.83;;;4.02;75.41
81997;BME280;71500;50.806;8.774;2024-01-30T11:05:27;101007.80;;;4.03;75.47
81997;BME280;71500;50.806;8.774;2024-01-30T11:08:13;101004.23;;;4.04;75.43
81997;BME280;71500;50.806;8.774;2024-01-30T11:10:48;100993.08;;;4.06;75.45
81997;BME280;71500;50.806;8.774;2024-01-30T11:13:21;100990.23;;;4.07;75.51
81997;BME280;71500;50.806;8.774;2024-01-30T11:15:53;100994.90;;;4.09;75.67
81997;BME280;71500;50.806;8.774;2024-01-30T11:18:30;100992.86;;;4.15;75.69
81997;BME280;71500;50.806;8.774;2024-01-30T11:21:04;100998.55;;;4.25;75.87
81997;BME280;71500;50.806;8.774;2024-01-30T11:23:36;100993.84;;;4.29;75.87
81997;BME280;71500;50.806;8.774;2024-01-30T11:26:08;101004.23;;;4.40;76.03
81997;BME280;71500;50.806;8.774;2024-01-30T11:28:41;100996.11;;;4.44;76.04
81997;BME280;71500;50.806;8.774;2024-01-30T11:31:20;100991.16;;;4.53;76.07
81997;BME280;71500;50.806;8.774;2024-01-30T11:33:55;100990.34;;;4.63;76.15
81997;BME280;71500;50.806;8.774;2024-01-30T11:36:27;100988.13;;;4.73;76.17
81997;BME280;71500;50.806;8.774;2024-01-30T11:38:59;100986.80;;;4.83;76.14
81997;BME280;71500;50.806;8.774;2024-01-30T11:41:33;100987.85;;;4.94;76.03
81997;BME280;71500;50.806;8.774;2024-01-30T11:44:06;100992.42;;;5.05;75.82
81997;BME280;71500;50.806;8.774;2024-01-30T11:46:39;100983.64;;;5.12;75.73
81997;BME280;71500;50.806;8.774;2024-01-30T11:49:11;100982.83;;;5.18;75.58
81997;BME280;71500;50.806;8.774;2024-01-30T11:51:43;100982.29;;;5.22;75.47
81997;BME280;71500;50.806;8.774;2024-01-30T11:54:17;100977.12;;;5.23;75.44
81997;BME280;71500;50.806;8.774;2024-01-30T11:56:48;100981.63;;;5.28;75.42
81997;BME280;71500;50.806;8.774;2024-01-30T11:59:19;100966.71;;;5.27;75.42
81997;BME280;71500;50.806;8.774;2024-01-30T12:01:52;100969.28;;;5.29;75.45
81997;BME280;71500;50.806;8.774;2024-01-30T12:04:23;100974.98;;;5.31;75.39
81997;BME280;71500;50.806;8.774;2024-01-30T12:06:54;100979.02;;;5.35;75.40
81997;BME280;71500;50.806;8.774;2024-01-30T12:09:26;100969.94;;;5.33;75.41
81997;BME280;71500;50.806;8.774;2024-01-30T12:11:58;100968.45;;;5.35;75.41
81997;BME280;71500;50.806;8.774;2024-01-30T12:14:30;100964.13;;;5.37;75.32
81997;BME280;71500;50.806;8.774;2024-01-30T12:17:02;100962.61;;;5.39;75.32
81997;BME280;71500;50.806;8.774;2024-01-30T12:19:33;100968.55;;;5.40;75.33
81997;BME280;71500;50.806;8.774;2024-01-30T12:22:05;100966.29;;;5.44;75.34
81997;BME280;71500;50.806;8.774;2024-01-30T12:24:37;100957.91;;;5.45;75.35
81997;BME280;71500;50.806;8.774;2024-01-30T12:27:09;100956.52;;;5.48;75.46
81997;BME280;71500;50.806;8.774;2024-01-30T12:29:44;100956.70;;;5.52;75.34
81997;BME280;71500;50.806;8.774;2024-01-30T12:32:17;100958.14;;;5.55;75.33
81997;BME280;71500;50.806;8.774;2024-01-30T12:34:49;100952.09;;;5.56;75.42
81997;BME280;71500;50.806;8.774;2024-01-30T12:37:31;100949.52;;;5.58;75.30
81997;BME280;71500;50.806;8.774;2024-01-30T12:40:03;100948.40;;;5.59;75.30
81997;BME280;71500;50.806;8.774;2024-01-30T12:42:36;100945.73;;;5.60;75.33
81997;BME280;71500;50.806;8.774;2024-01-30T12:45:09;100944.56;;;5.62;75.23
81997;BME280;71500;50.806;8.774;2024-01-30T12:47:40;100941.65;;;5.64;75.24
81997;BME280;71500;50.806;8.774;2024-01-30T12:50:12;100937.33;;;5.69;75.18
81997;BME280;71500;50.806;8.774;2024-01-30T12:52:46;100933.84;;;5.75;75.06
81997;BME280;71500;50.806;8.774;2024-01-30T12:55:19;100919.34;;;5.79;75.06
81997;BME280;71500;50.806;8.774;2024-01-30T12:57:51;100918.73;;;5.85;74.97
81997;BME280;71500;50.806;8.774;2024-01-30T13:00:23;100921.88;;;5.92;74.95
81997;BME280;71500;50.806;8.774;2024-01-30T13:02:54;100913.63;;;5.98;74.88
81997;BME280;71500;50.806;8.774;2024-01-30T13:05:26;100908.08;;;6.03;74.84
81997;BME280;71500;50.806;8.774;2024-01-30T13:07:57;100915.09;;;6.07;74.71
81997;BME280;71500;50.806;8.774;2024-01-30T13:10:29;100908.73;;;6.10;74.56
81997;BME280;71500;50.806;8.774;2024-01-30T13:13:01;100909.86;;;6.13;74.57
81997;BME280;71500;50.806;8.774;2024-01-30T13:15:33;100913.93;;;6.16;74.55
81997;BME280;71500;50.806;8.774;2024-01-30T13:18:05;100920.95;;;6.16;74.45
81997;BME280;71500;50.806;8.774;2024-01-30T13:20:36;100932.05;;;6.17;74.48
81997;BME280;71500;50.806;8.774;2024-01-30T13:23:08;100936.45;;;6.17;74.36
81997;BME280;71500;50.806;8.774;2024-01-30T13:25:39;100936.71;;;6.15;74.30